Time;durP1;ratioP1;P1;durP2;ratioP2;P2;SDS_P1;SDS_P2;PMS_P1;PMS_P2;Temp;Humidity;BMP_temperature;BMP_pressure;BME280_temperature;BME280_humidity;BME280_pressure;Samples;Min_cycle;Max_cycle;Signal;HPM_P1;HPM_P2
2023/02/23 00:02:18;;;;;;;22.05;14.55;;;10.90;96.70;;;;;;5083516;28;20040;-73
2023/02/23 00:04:47;;;;;;;18.20;14.63;;;10.80;96.70;;;;;;5094699;28;20520;-73
2023/02/23 00:07:18;;;;;;;18.55;15.35;;;10.70;96.70;;;;;;5094235;28;20043;-72
2023/02/23 00:09:46;;;;;;;20.77;14.85;;;10.70;96.70;;;;;;5085371;28;20081;-73
2023/02/23 00:12:16;;;;;;;21.63;15.68;;;10.70;96.70;;;;;;5078792;28;20479;-74
2023/02/23 00:14:44;;;;;;;17.80;14.45;;;10.70;96.70;;;;;;5098424;28;20068;-73
2023/02/23 00:17:13;;;;;;;17.73;14.25;;;10.80;96.70;;;;;;5084112;28;20047;-73
2023/02/23 00:19:44;;;;;;;20.65;14.52;;;10.80;96.70;;;;;;5089967;28;20413;-73
2023/02/23 00:22:14;;;;;;;17.77;14.75;;;10.70;96.70;;;;;;5063822;28;20401;-73
2023/02/23 00:24:42;;;;;;;17.98;14.80;;;10.70;96.70;;;;;;5091671;28;20047;-72
2023/02/23 00:27:16;;;;;;;20.65;14.82;;;10.70;96.70;;;;;;5083571;28;20044;-73
2023/02/23 00:29:48;;;;;;;20.98;14.25;;;10.70;96.70;;;;;;5067593;28;20125;-73
2023/02/23 00:32:19;;;;;;;20.63;16.10;;;10.70;96.70;;;;;;5092295;28;20375;-73
2023/02/23 00:34:48;;;;;;;19.83;15.98;;;10.70;96.70;;;;;;5092508;28;20031;-73
2023/02/23 00:37:18;;;;;;;18.38;14.02;;;10.70;96.70;;;;;;5060032;28;20095;-73
2023/02/23 00:39:48;;;;;;;20.35;14.45;;;10.70;96.70;;;;;;5074793;28;20052;-72
2023/02/23 00:42:15;;;;;;;19.20;15.52;;;10.70;96.70;;;;;;5089977;28;20062;-73
2023/02/23 00:44:46;;;;;;;22.48;15.15;;;10.60;96.70;;;;;;5096475;28;20532;-73
2023/02/23 00:47:14;;;;;;;20.35;14.95;;;10.60;96.70;;;;;;5085736;28;20055;-73
2023/02/23 00:49:43;;;;;;;19.83;15.30;;;10.60;96.70;;;;;;5075133;28;20128;-72
2023/02/23 00:52:13;;;;;;;22.77;15.45;;;10.60;96.70;;;;;;5080211;28;20052;-73
2023/02/23 00:54:42;;;;;;;19.17;14.77;;;10.50;96.70;;;;;;5083360;28;20126;-73
2023/02/23 00:57:10;;;;;;;19.08;14.98;;;10.50;96.70;;;;;;5081466;28;20043;-73
2023/02/23 00:59:38;;;;;;;18.38;15.18;;;10.50;96.70;;;;;;5087010;28;20490;-73
2023/02/23 01:02:06;;;;;;;20.25;14.75;;;10.50;96.70;;;;;;5099153;28;20044;-74
2023/02/23 01:04:34;;;;;;;20.25;15.75;;;10.50;96.70;;;;;;5090561;28;20396;-72
2023/02/23 01:07:05;;;;;;;24.33;16.63;;;10.40;96.70;;;;;;5078927;28;20291;-72
2023/02/23 01:09:33;;;;;;;21.52;15.93;;;10.40;96.70;;;;;;5084075;28;20409;-74
2023/02/23 01:12:06;;;;;;;21.33;15.80;;;10.40;96.70;;;;;;5101326;28;20040;-73
2023/02/23 01:14:36;;;;;;;21.00;16.27;;;10.30;96.70;;;;;;5094582;28;20044;-73
2023/02/23 01:17:04;;;;;;;21.05;16.48;;;10.40;96.70;;;;;;5084129;28;20597;-73
2023/02/23 01:19:33;;;;;;;19.48;15.13;;;10.40;96.70;;;;;;5078446;28;20040;-73
2023/02/23 01:22:03;;;;;;;20.90;16.55;;;10.30;96.70;;;;;;5077859;28;20048;-73
2023/02/23 01:24:30;;;;;;;22.30;16.05;;;10.30;96.70;;;;;;5090874;28;20127;-73
2023/02/23 01:26:58;;;;;;;18.27;15.00;;;10.30;96.70;;;;;;5094766;28;20039;-73
2023/02/23 01:29:28;;;;;;;20.65;15.85;;;10.20;96.70;;;;;;5085802;28;20050;-73
2023/02/23 01:31:56;;;;;;;21.38;15.40;;;10.10;96.70;;;;;;5091521;28;20100;-73
2023/02/23 01:34:24;;;;;;;22.48;15.52;;;10.10;96.70;;;;;;5070284;28;20082;-73
2023/02/23 01:36:51;;;;;;;19.98;14.80;;;10.20;96.70;;;;;;5085008;28;20040;-73
2023/02/23 01:39:20;;;;;;;22.33;14.98;;;10.30;96.70;;;;;;5083254;28;20409;-72
2023/02/23 01:41:50;;;;;;;20.42;15.23;;;10.20;96.70;;;;;;5090420;28;20838;-73
2023/02/23 01:44:55;;;;;;;17.65;13.88;;;10.20;96.70;;;;;;5091629;28;20084;-73
2023/02/23 01:47:26;;;;;;;19.08;14.55;;;10.20;96.70;;;;;;5099550;28;20040;-73
2023/02/23 01:49:54;;;;;;;20.77;14.95;;;10.30;96.70;;;;;;5095238;28;20058;-72
2023/02/23 01:52:21;;;;;;;20.27;14.80;;;10.30;96.70;;;;;;5067948;28;20151;-73
2023/02/23 01:54:52;;;;;;;18.98;15.65;;;10.30;96.70;;;;;;5086107;28;20125;-74
2023/02/23 01:57:23;;;;;;;19.08;14.45;;;10.30;96.70;;;;;;5096104;28;20058;-73
2023/02/23 01:59:53;;;;;;;17.33;13.85;;;10.30;96.70;;;;;;5083394;28;20047;-73
2023/02/23 02:02:32;;;;;;;19.65;14.43;;;10.30;96.70;;;;;;5087736;28;20048;-73
2023/02/23 02:05:03;;;;;;;21.10;15.35;;;10.20;96.70;;;;;;5073948;28;20604;-73
2023/02/23 02:07:34;;;;;;;19.75;14.77;;;10.20;96.70;;;;;;5079101;28;20101;-73
2023/02/23 02:12:43;;;;;;;18.05;14.68;;;10.20;96.70;;;;;;5091316;28;20588;-73
2023/02/23 02:15:18;;;;;;;16.42;13.52;;;10.20;96.70;;;;;;5076465;28;20051;-73
2023/02/23 02:17:55;;;;;;;19.45;13.02;;;10.20;96.70;;;;;;5094216;28;20047;-73
2023/02/23 02:20:41;;;;;;;20.63;15.00;;;10.10;96.70;;;;;;5078577;28;20055;-72
2023/02/23 02:23:35;;;;;;;20.05;14.57;;;10.10;96.70;;;;;;5090675;28;20487;-73
2023/02/23 02:26:14;;;;;;;18.30;13.88;;;10.10;96.70;;;;;;5059054;28;20048;-76
2023/02/23 02:29:27;;;;;;;18.33;14.93;;;10.10;96.70;;;;;;5082014;28;20048;-76
2023/02/23 02:32:28;;;;;;;18.10;13.90;;;10.10;96.70;;;;;;5037112;28;20071;-76
2023/02/23 02:35:36;;;;;;;16.75;12.80;;;10.00;96.70;;;;;;5069237;28;20067;-76
2023/02/23 02:38:16;;;;;;;14.10;11.68;;;10.10;96.70;;;;;;5063327;28;20572;-76
2023/02/23 02:41:11;;;;;;;13.85;11.50;;;10.00;96.70;;;;;;5102595;27;20074;-75
2023/02/23 02:43:53;;;;;;;13.18;10.82;;;10.10;96.70;;;;;;5083620;28;20042;-76
2023/02/23 02:46:25;;;;;;;12.27;9.73;;;10.10;96.70;;;;;;5088726;28;20048;-76
2023/02/23 02:49:01;;;;;;;11.82;9.32;;;10.00;96.70;;;;;;5099407;28;20405;-75
2023/02/23 02:51:35;;;;;;;12.52;9.38;;;9.90;96.70;;;;;;5104908;28;20047;-76
2023/02/23 02:54:12;;;;;;;11.43;9.80;;;9.90;96.70;;;;;;5082840;28;20706;-75
2023/02/23 02:56:43;;;;;;;13.15;9.15;;;9.90;96.70;;;;;;5076637;28;20065;-75
2023/02/23 04:19:01;;;;;;;13.82;11.27;;;9.70;96.70;;;;;;5079303;28;20576;-75
2023/02/23 04:21:29;;;;;;;13.40;11.52;;;9.70;96.70;;;;;;5082742;28;20043;-75
2023/02/23 04:23:58;;;;;;;14.50;12.10;;;9.70;96.70;;;;;;5089671;28;20708;-76
2023/02/23 04:26:26;;;;;;;14.93;10.35;;;9.70;96.70;;;;;;5089789;28;20043;-75
2023/02/23 04:28:53;;;;;;;16.65;11.93;;;9.50;96.70;;;;;;5086577;28;20055;-76
2023/02/23 04:31:23;;;;;;;13.75;11.50;;;9.50;96.70;;;;;;5103569;28;20155;-75
2023/02/23 04:33:51;;;;;;;16.85;11.95;;;9.60;96.70;;;;;;5069145;28;20047;-76
2023/02/23 04:36:23;;;;;;;14.32;11.40;;;9.60;96.70;;;;;;5076432;28;20119;-76
2023/02/23 04:38:50;;;;;;;15.73;10.88;;;9.50;96.70;;;;;;5093453;28;20044;-75
2023/02/23 04:41:18;;;;;;;13.40;10.35;;;9.50;96.70;;;;;;5092062;28;20086;-76
2023/02/23 04:43:46;;;;;;;14.80;10.48;;;9.50;96.70;;;;;;5083282;28;20062;-75
2023/02/23 04:46:14;;;;;;;14.50;10.43;;;9.50;96.70;;;;;;5093113;28;20036;-76
2023/02/23 04:48:42;;;;;;;14.23;11.18;;;9.50;96.70;;;;;;5076911;28;20134;-75
2023/02/23 04:51:09;;;;;;;13.88;10.98;;;9.50;96.70;;;;;;5096262;28;20085;-75
2023/02/23 04:53:39;;;;;;;15.55;10.32;;;9.50;96.70;;;;;;5088280;28;20040;-76
2023/02/23 04:56:07;;;;;;;12.90;10.40;;;9.40;96.70;;;;;;5081420;28;20050;-75
2023/02/23 04:58:34;;;;;;;14.02;10.60;;;9.40;96.70;;;;;;5099765;28;20055;-77
2023/02/23 05:01:08;;;;;;;13.77;10.68;;;9.40;96.70;;;;;;5097144;28;20048;-76
2023/02/23 05:03:36;;;;;;;13.63;10.25;;;9.40;96.70;;;;;;5084379;28;20526;-76
2023/02/23 05:06:04;;;;;;;12.18;9.48;;;9.40;96.70;;;;;;5072771;28;20404;-76
2023/02/23 05:08:32;;;;;;;12.48;10.07;;;9.40;96.70;;;;;;5077637;28;20130;-75
2023/02/23 05:11:01;;;;;;;13.50;10.13;;;9.40;96.70;;;;;;5073737;28;20055;-76
2023/02/23 05:13:29;;;;;;;14.20;10.07;;;9.40;96.70;;;;;;5089322;28;20035;-76
2023/02/23 05:15:56;;;;;;;12.70;9.93;;;9.30;96.70;;;;;;5083308;28;20043;-76
2023/02/23 05:18:25;;;;;;;11.05;9.65;;;9.30;96.70;;;;;;5095473;28;20056;-77
2023/02/23 05:20:53;;;;;;;12.48;10.50;;;9.30;96.70;;;;;;5092027;28;20051;-75
2023/02/23 05:23:37;;;;;;;13.25;10.45;;;9.30;96.70;;;;;;5089980;28;20045;-75
2023/02/23 05:26:09;;;;;;;15.32;11.55;;;9.30;96.70;;;;;;5095026;28;20065;-76
2023/02/23 05:28:38;;;;;;;16.17;11.63;;;9.20;96.70;;;;;;5091349;28;20048;-76
2023/02/23 05:31:07;;;;;;;14.70;10.98;;;9.20;96.70;;;;;;5091721;28;20068;-76
2023/02/23 05:33:42;;;;;;;15.23;10.85;;;9.20;96.70;;;;;;5074369;28;20059;-76
2023/02/23 05:36:12;;;;;;;14.60;10.77;;;9.20;96.70;;;;;;5080794;28;20047;-75
2023/02/23 05:38:39;;;;;;;13.02;10.98;;;9.30;96.70;;;;;;5101574;28;20044;-75
2023/02/23 05:41:10;;;;;;;15.38;12.20;;;9.30;96.70;;;;;;5090686;28;20044;-76
2023/02/23 05:43:38;;;;;;;13.32;10.35;;;9.30;96.70;;;;;;5082044;28;20048;-76
2023/02/23 05:46:07;;;;;;;15.48;11.02;;;9.30;96.70;;;;;;5073638;28;20040;-75
2023/02/23 05:48:35;;;;;;;14.07;11.02;;;9.30;96.70;;;;;;5071388;28;20497;-76
2023/02/23 05:51:03;;;;;;;13.50;10.27;;;9.30;96.70;;;;;;5081935;28;20076;-75
2023/02/23 05:53:31;;;;;;;16.90;11.93;;;9.30;96.70;;;;;;5084164;28;20044;-75
2023/02/23 05:56:00;;;;;;;12.40;10.85;;;9.30;96.70;;;;;;5098998;28;20895;-76
2023/02/23 05:58:30;;;;;;;16.65;12.30;;;9.20;96.70;;;;;;5084895;28;20047;-76
2023/02/23 06:00:58;;;;;;;15.02;11.70;;;9.20;96.70;;;;;;5066903;28;20174;-76
2023/02/23 06:03:25;;;;;;;14.73;11.27;;;9.20;96.70;;;;;;5101058;28;20511;-75
2023/02/23 06:05:56;;;;;;;13.27;11.20;;;9.20;96.70;;;;;;5098111;28;20039;-76
2023/02/23 06:08:25;;;;;;;17.42;12.15;;;9.20;96.70;;;;;;5089595;28;20044;-76
2023/02/23 06:10:53;;;;;;;15.45;12.35;;;9.20;96.70;;;;;;5091633;28;20055;-76
2023/02/23 06:13:21;;;;;;;14.30;10.30;;;9.20;96.70;;;;;;5072979;28;20041;-76
2023/02/23 06:15:50;;;;;;;15.93;11.55;;;9.10;96.70;;;;;;5087410;28;20119;-76
2023/02/23 06:18:20;;;;;;;13.20;10.97;;;9.10;96.70;;;;;;5088136;28;20443;-76
2023/02/23 06:20:48;;;;;;;14.40;10.38;;;9.10;96.70;;;;;;5104995;28;20050;-76
2023/02/23 06:23:16;;;;;;;14.35;10.98;;;9.20;96.70;;;;;;5088582;28;20032;-76
2023/02/23 06:25:46;;;;;;;15.98;11.93;;;9.20;96.70;;;;;;5088780;28;20509;-76
2023/02/23 06:28:14;;;;;;;13.75;11.35;;;9.20;96.70;;;;;;5088486;28;20040;-75
2023/02/23 06:30:42;;;;;;;15.10;11.52;;;9.20;96.70;;;;;;5093396;28;20152;-75
2023/02/23 06:33:11;;;;;;;14.95;12.20;;;9.20;96.70;;;;;;5082766;28;20071;-76
2023/02/23 06:35:39;;;;;;;18.63;12.05;;;9.20;96.70;;;;;;5082425;28;20138;-75
2023/02/23 06:38:07;;;;;;;15.30;12.27;;;9.30;96.70;;;;;;5087387;28;20090;-76
2023/02/23 06:40:37;;;;;;;14.20;12.27;;;9.40;96.70;;;;;;5087412;28;20079;-75
2023/02/23 06:43:04;;;;;;;15.27;12.07;;;9.30;96.70;;;;;;5093644;28;20118;-75
2023/02/23 06:45:32;;;;;;;15.23;12.73;;;9.30;96.70;;;;;;5084480;28;20129;-75
2023/02/23 06:48:00;;;;;;;19.65;13.07;;;9.40;96.70;;;;;;5082657;28;20040;-77
2023/02/23 06:50:29;;;;;;;17.73;12.77;;;9.40;96.70;;;;;;5079954;28;20047;-79
2023/02/23 06:52:57;;;;;;;18.48;12.43;;;9.40;96.70;;;;;;5080646;28;20036;-74
2023/02/23 06:55:25;;;;;;;18.25;13.65;;;9.50;96.70;;;;;;5088553;28;20405;-75
2023/02/23 06:57:53;;;;;;;16.73;12.60;;;9.50;96.70;;;;;;5099164;28;20533;-74
2023/02/23 07:00:22;;;;;;;17.33;12.95;;;9.50;96.70;;;;;;5094879;28;20081;-74
2023/02/23 07:02:50;;;;;;;14.27;10.98;;;9.60;96.70;;;;;;5093518;28;20398;-75
2023/02/23 07:05:18;;;;;;;15.57;11.77;;;9.60;96.70;;;;;;5095234;28;20138;-74
2023/02/23 07:07:47;;;;;;;13.98;10.93;;;9.70;96.70;;;;;;5093988;28;20124;-75
2023/02/23 07:10:17;;;;;;;17.55;11.50;;;9.70;96.70;;;;;;5072999;28;20130;-76
2023/02/23 07:12:45;;;;;;;17.02;12.88;;;9.80;96.70;;;;;;5056150;28;20064;-74
2023/02/23 07:15:16;;;;;;;19.27;13.48;;;9.90;96.70;;;;;;5069045;28;20575;-74
2023/02/23 07:18:00;;;;;;;18.35;13.23;;;9.90;96.70;;;;;;5101954;28;20051;-73
2023/02/23 07:20:28;;;;;;;28.48;14.48;;;9.90;96.70;;;;;;5069637;28;20056;-74
2023/02/23 07:22:59;;;;;;;21.35;13.95;;;9.90;96.70;;;;;;5103188;28;20039;-74
2023/02/23 07:25:27;;;;;;;19.40;13.68;;;9.90;96.70;;;;;;5093298;28;20035;-74
2023/02/23 07:27:55;;;;;;;21.95;15.18;;;10.00;96.70;;;;;;5087093;28;20234;-77
2023/02/23 07:30:23;;;;;;;18.60;13.52;;;10.00;96.70;;;;;;5076297;28;20080;-74
2023/02/23 07:32:51;;;;;;;21.27;14.45;;;10.00;96.70;;;;;;5102369;28;20047;-75
2023/02/23 07:35:20;;;;;;;19.73;14.98;;;10.00;96.70;;;;;;5103034;28;20043;-76
2023/02/23 07:37:48;;;;;;;17.63;13.45;;;10.10;96.70;;;;;;5098687;28;20389;-76
2023/02/23 07:40:18;;;;;;;17.25;14.45;;;10.10;96.70;;;;;;5102269;28;20129;-74
2023/02/23 07:42:46;;;;;;;18.05;13.75;;;10.20;96.70;;;;;;5094392;28;20047;-74
2023/02/23 07:45:15;;;;;;;15.85;13.10;;;10.20;96.70;;;;;;5092757;28;20141;-76
2023/02/23 07:47:43;;;;;;;15.80;13.48;;;10.20;96.70;;;;;;5082671;28;20139;-76
2023/02/23 07:50:12;;;;;;;17.10;13.50;;;10.20;96.70;;;;;;5087897;28;20463;-74
2023/02/23 07:52:41;;;;;;;19.50;13.32;;;10.20;96.70;;;;;;5096872;28;20257;-75
2023/02/23 07:55:10;;;;;;;16.23;12.70;;;10.30;96.70;;;;;;5094859;28;20055;-75
2023/02/23 07:57:39;;;;;;;17.15;12.93;;;10.30;96.70;;;;;;5101898;28;20127;-76
2023/02/23 08:00:09;;;;;;;19.02;13.60;;;10.30;96.70;;;;;;5089685;28;20075;-77
2023/02/23 08:02:40;;;;;;;20.40;13.82;;;10.40;96.70;;;;;;5094626;28;20072;-79
2023/02/23 08:05:08;;;;;;;20.00;13.52;;;10.40;96.70;;;;;;5102946;28;20074;-78
2023/02/23 08:07:37;;;;;;;20.13;13.93;;;10.50;96.70;;;;;;5069027;28;20514;-78
2023/02/23 08:10:06;;;;;;;23.73;15.50;;;10.50;96.70;;;;;;5092260;28;20159;-77
2023/02/23 08:12:33;;;;;;;21.40;15.32;;;10.60;96.70;;;;;;5097052;28;20134;-77
2023/02/23 08:15:07;;;;;;;24.17;16.58;;;10.70;96.70;;;;;;5090893;28;20105;-76
2023/02/23 08:17:35;;;;;;;26.88;19.77;;;10.70;96.70;;;;;;5091471;28;20067;-77
2023/02/23 08:20:03;;;;;;;31.42;20.88;;;10.80;96.70;;;;;;5084520;28;20051;-78
2023/02/23 08:22:32;;;;;;;34.88;21.15;;;10.80;96.70;;;;;;5100286;28;20493;-79
2023/02/23 08:25:16;;;;;;;33.30;21.60;;;10.90;96.70;;;;;;5102491;28;20035;-79
2023/02/23 08:27:43;;;;;;;30.42;19.85;;;11.00;96.70;;;;;;5095783;28;20055;-79
2023/02/23 08:30:14;;;;;;;22.80;15.55;;;11.10;96.70;;;;;;5065165;28;20048;-78
2023/02/23 08:32:49;;;;;;;20.52;15.68;;;11.10;96.70;;;;;;5088539;28;20063;-77
2023/02/23 08:35:19;;;;;;;21.00;14.25;;;11.10;96.70;;;;;;5087486;28;20059;-78
2023/02/23 08:37:47;;;;;;;19.23;13.55;;;11.10;96.70;;;;;;5085268;28;20134;-80
2023/02/23 08:40:17;;;;;;;19.73;14.13;;;11.10;96.70;;;;;;5093902;28;20051;-78
2023/02/23 08:42:45;;;;;;;18.42;13.60;;;11.20;96.70;;;;;;5069010;28;20048;-79
2023/02/23 08:45:14;;;;;;;21.20;14.40;;;11.20;96.70;;;;;;5081502;28;20143;-79
2023/02/23 08:47:42;;;;;;;18.70;14.10;;;11.20;96.70;;;;;;5082080;28;20501;-79
2023/02/23 08:50:19;;;;;;;18.52;13.95;;;11.30;96.70;;;;;;5087311;28;20493;-78
2023/02/23 08:52:47;;;;;;;16.17;13.88;;;11.30;96.70;;;;;;5101624;28;20051;-79
2023/02/23 08:55:17;;;;;;;18.33;14.90;;;11.30;96.70;;;;;;5090967;28;20466;-77
2023/02/23 08:57:45;;;;;;;18.63;14.68;;;11.40;96.70;;;;;;5091122;28;20047;-77
2023/02/23 09:00:16;;;;;;;17.70;14.10;;;11.30;96.70;;;;;;5094230;28;20048;-79
2023/02/23 09:02:47;;;;;;;18.35;14.23;;;11.40;96.70;;;;;;5077349;28;20454;-78
2023/02/23 09:05:15;;;;;;;21.10;14.55;;;11.50;96.70;;;;;;5091636;28;20039;-78
2023/02/23 09:07:45;;;;;;;24.15;16.45;;;11.50;96.70;;;;;;5066985;28;20052;-79
2023/02/23 09:10:15;;;;;;;20.10;15.75;;;11.60;96.70;;;;;;5095566;28;20445;-79
2023/02/23 09:12:43;;;;;;;19.75;15.90;;;11.60;96.70;;;;;;5081374;28;20569;-78
2023/02/23 09:15:11;;;;;;;18.05;14.48;;;11.60;96.70;;;;;;5087456;28;20039;-77
2023/02/23 09:17:43;;;;;;;21.02;14.32;;;11.70;96.70;;;;;;5088869;28;20040;-78
2023/02/23 09:20:14;;;;;;;20.85;14.70;;;11.80;96.70;;;;;;5063538;28;20075;-78
2023/02/23 09:22:48;;;;;;;17.88;14.23;;;11.90;96.70;;;;;;5092103;28;20112;-77
2023/02/23 09:25:18;;;;;;;19.05;15.18;;;11.90;96.70;;;;;;5099280;28;20067;-78
2023/02/23 09:27:45;;;;;;;19.23;15.55;;;12.00;96.70;;;;;;5079506;28;20039;-78
2023/02/23 09:30:16;;;;;;;19.00;16.05;;;12.00;96.70;;;;;;5093400;28;20101;-78
2023/02/23 09:32:46;;;;;;;20.70;16.52;;;12.00;96.70;;;;;;5083301;28;20456;-75
2023/02/23 09:35:18;;;;;;;20.65;15.60;;;12.10;96.70;;;;;;5082375;28;20051;-77
2023/02/23 09:37:48;;;;;;;21.75;15.52;;;12.10;96.70;;;;;;5071898;28;20128;-77
2023/02/23 09:40:19;;;;;;;19.63;15.18;;;12.10;96.70;;;;;;5094690;28;20052;-76
2023/02/23 09:42:57;;;;;;;18.88;15.18;;;12.20;96.70;;;;;;5076492;28;20040;-77
2023/02/23 09:45:33;;;;;;;23.05;16.77;;;12.20;96.70;;;;;;5102236;28;20126;-76
2023/02/23 09:48:11;;;;;;;20.33;16.40;;;12.20;96.70;;;;;;5097434;28;20107;-76
2023/02/23 09:50:43;;;;;;;26.27;16.67;;;12.20;96.70;;;;;;5104056;28;20050;-76
2023/02/23 09:53:23;;;;;;;20.60;17.60;;;12.20;96.70;;;;;;5103131;28;20610;-75
2023/02/23 09:55:53;;;;;;;21.48;16.90;;;12.30;96.70;;;;;;5090161;28;20418;-76
2023/02/23 09:58:24;;;;;;;25.52;19.55;;;12.40;96.70;;;;;;5095670;28;20071;-76
2023/02/23 10:01:18;;;;;;;21.33;17.50;;;12.50;96.70;;;;;;5091091;28;20043;-77
2023/02/23 10:03:54;;;;;;;20.52;16.48;;;12.60;96.70;;;;;;5099108;28;20063;-76
2023/02/23 10:06:22;;;;;;;20.33;17.43;;;12.70;96.70;;;;;;5091895;28;20044;-76
2023/02/23 10:09:02;;;;;;;23.00;18.95;;;12.90;96.70;;;;;;5067909;28;20135;-77
2023/02/23 10:11:40;;;;;;;21.52;17.70;;;13.10;96.70;;;;;;5079502;28;20054;-78
2023/02/23 10:14:22;;;;;;;21.20;17.33;;;13.30;96.70;;;;;;5079259;28;21109;-77
2023/02/23 10:17:02;;;;;;;21.73;16.63;;;13.40;96.70;;;;;;5089357;28;20631;-77
2023/02/23 10:19:41;;;;;;;22.55;15.50;;;13.50;96.70;;;;;;5101364;28;20043;-77
2023/02/23 10:22:13;;;;;;;18.58;15.70;;;13.70;96.70;;;;;;5060633;28;20055;-78
2023/02/23 10:24:44;;;;;;;20.77;15.18;;;13.80;96.70;;;;;;5089384;28;20129;-78
2023/02/23 10:27:16;;;;;;;18.55;14.68;;;13.80;96.70;;;;;;5095706;28;20508;-81
2023/02/23 10:29:50;;;;;;;19.23;14.55;;;13.80;96.70;;;;;;5086172;28;20480;-80
2023/02/23 10:32:23;;;;;;;17.33;13.85;;;13.70;96.70;;;;;;5079662;28;20044;-79
2023/02/23 10:34:55;;;;;;;17.98;14.02;;;13.80;96.70;;;;;;5085763;28;20409;-80
2023/02/23 10:37:24;;;;;;;14.63;12.90;;;13.90;96.70;;;;;;5094683;28;20091;-80
2023/02/23 10:39:53;;;;;;;15.50;13.00;;;13.90;96.70;;;;;;5086147;28;20405;-77
2023/02/23 10:42:27;;;;;;;16.70;13.80;;;14.00;96.70;;;;;;5087431;28;20044;-78
2023/02/23 10:44:56;;;;;;;15.93;12.95;;;14.00;96.70;;;;;;5093240;28;20829;-78
2023/02/23 10:47:27;;;;;;;14.70;11.75;;;14.20;96.70;;;;;;5096851;28;20049;-79
2023/02/23 10:49:57;;;;;;;12.93;11.43;;;14.20;96.70;;;;;;5066600;28;20505;-78
2023/02/23 10:52:32;;;;;;;23.90;19.70;;;14.40;96.70;;;;;;5091798;28;20043;-78
2023/02/23 10:55:05;;;;;;;17.98;14.80;;;14.60;96.70;;;;;;5063871;28;20083;-80
2023/02/23 10:57:37;;;;;;;36.85;29.00;;;14.60;96.70;;;;;;5095183;28;20550;-77
2023/02/23 11:00:26;;;;;;;26.27;22.80;;;14.80;96.70;;;;;;5087311;28;20584;-79
2023/02/23 11:02:57;;;;;;;15.02;12.88;;;14.80;96.70;;;;;;5084238;28;20073;-77
2023/02/23 11:05:32;;;;;;;11.70;9.38;;;14.90;96.70;;;;;;5072768;28;20538;-78
2023/02/23 11:08:18;;;;;;;11.90;9.88;;;15.10;96.70;;;;;;5098238;28;20067;-78
2023/02/23 11:10:58;;;;;;;9.82;8.82;;;15.20;96.70;;;;;;5094563;28;20047;-79
2023/02/23 11:13:28;;;;;;;9.98;8.60;;;15.30;96.70;;;;;;5103985;28;20044;-78
2023/02/23 11:16:03;;;;;;;13.90;8.77;;;15.50;96.70;;;;;;5088412;28;20589;-78
2023/02/23 11:18:31;;;;;;;12.75;9.32;;;15.70;96.70;;;;;;5084190;28;20359;-78
2023/02/23 11:21:01;;;;;;;6.70;6.00;;;15.90;96.70;;;;;;5104851;28;20039;-78
2023/02/23 11:23:33;;;;;;;6.90;4.97;;;15.90;96.70;;;;;;5099451;28;20799;-78
2023/02/23 11:26:04;;;;;;;7.85;6.35;;;15.90;96.70;;;;;;5095182;28;20047;-78
2023/02/23 11:28:35;;;;;;;6.72;4.60;;;15.90;96.70;;;;;;5093976;28;20055;-78
2023/02/23 11:31:18;;;;;;;6.75;5.25;;;16.00;96.70;;;;;;5093322;28;20071;-78
2023/02/23 11:33:48;;;;;;;7.53;6.00;;;16.10;96.70;;;;;;5103601;28;20511;-78
2023/02/23 11:36:27;;;;;;;6.32;4.95;;;16.20;96.70;;;;;;5104512;28;20074;-78
2023/02/23 11:39:26;;;;;;;7.65;4.95;;;16.20;96.70;;;;;;5084212;28;20044;-78
2023/02/23 11:42:15;;;;;;;9.43;5.55;;;16.00;96.70;;;;;;5081391;28;20576;-78
2023/02/23 11:44:50;;;;;;;6.75;5.00;;;15.90;96.70;;;;;;5091666;28;20109;-76
2023/02/23 11:47:21;;;;;;;8.73;5.53;;;15.90;96.70;;;;;;5096466;28;20055;-78
2023/02/23 11:49:50;;;;;;;7.15;5.80;;;16.00;96.70;;;;;;5102498;28;20054;-78
2023/02/23 11:52:22;;;;;;;7.38;5.88;;;16.10;96.70;;;;;;5091656;28;20161;-77
2023/02/23 11:54:55;;;;;;;7.22;5.20;;;16.10;96.70;;;;;;5082930;28;20036;-77
2023/02/23 11:57:27;;;;;;;7.82;5.65;;;16.20;96.70;;;;;;5091024;28;20051;-78
2023/02/23 11:59:56;;;;;;;7.15;5.53;;;16.20;96.70;;;;;;5089868;28;20052;-77
2023/02/23 12:02:27;;;;;;;10.30;6.25;;;16.20;96.70;;;;;;5098661;28;20497;-77
2023/02/23 12:05:05;;;;;;;6.45;4.50;;;16.20;96.70;;;;;;5090931;28;20050;-78
2023/02/23 12:07:40;;;;;;;6.53;4.97;;;16.10;96.70;;;;;;5087858;28;20127;-75
2023/02/23 12:10:18;;;;;;;6.68;5.30;;;16.20;96.70;;;;;;5079625;28;20055;-75
2023/02/23 12:12:57;;;;;;;6.43;4.80;;;16.30;96.70;;;;;;5072388;28;20047;-76
2023/02/23 12:15:37;;;;;;;6.60;5.18;;;16.30;96.70;;;;;;5098391;28;20833;-75
2023/02/23 12:18:12;;;;;;;6.90;4.35;;;16.40;96.70;;;;;;5083855;28;20497;-76
2023/02/23 12:20:44;;;;;;;6.13;2.95;;;16.40;96.70;;;;;;5089062;28;20040;-77
2023/02/23 12:23:19;;;;;;;3.88;2.85;;;16.40;96.70;;;;;;5091203;28;20039;-78
2023/02/23 12:25:52;;;;;;;2.97;2.60;;;16.70;96.70;;;;;;5100067;28;20031;-77
2023/02/23 12:28:29;;;;;;;4.68;3.10;;;16.90;96.70;;;;;;5095189;28;20044;-76
2023/02/23 12:31:01;;;;;;;5.15;3.25;;;17.00;96.70;;;;;;5092364;28;20123;-76
2023/02/23 12:33:36;;;;;;;5.05;3.85;;;17.10;96.70;;;;;;5075457;28;20045;-76
2023/02/23 12:36:28;;;;;;;5.57;3.40;;;17.00;96.70;;;;;;5078435;28;20453;-76
2023/02/23 12:39:05;;;;;;;4.65;3.47;;;17.00;96.70;;;;;;5086934;28;20039;-77
2023/02/23 12:41:38;;;;;;;7.63;3.97;;;17.00;96.70;;;;;;5066975;28;20044;-77
2023/02/23 12:44:16;;;;;;;5.28;3.15;;;17.10;96.70;;;;;;5074803;28;20075;-76
2023/02/23 12:46:50;;;;;;;4.20;3.35;;;17.20;96.70;;;;;;5096802;28;20075;-75
2023/02/23 12:49:27;;;;;;;5.50;3.60;;;17.30;96.70;;;;;;5091181;28;20072;-77
2023/02/23 12:52:01;;;;;;;4.75;3.22;;;17.30;96.70;;;;;;5084388;28;20044;-75
2023/02/23 12:54:45;;;;;;;6.22;3.35;;;17.10;96.70;;;;;;5102630;28;20046;-76
2023/02/23 12:57:23;;;;;;;4.18;3.22;;;17.00;96.70;;;;;;5040522;28;20132;-78
2023/02/23 13:00:28;;;;;;;4.53;3.38;;;17.00;96.70;;;;;;5081371;28;20117;-76
2023/02/23 13:03:35;;;;;;;4.93;3.40;;;16.90;96.70;;;;;;5085963;28;20114;-77
2023/02/23 13:06:10;;;;;;;6.45;4.25;;;17.00;96.70;;;;;;5091454;28;20056;-76
2023/02/23 13:08:57;;;;;;;6.25;4.03;;;17.10;96.70;;;;;;5077054;28;20138;-76
2023/02/23 13:11:50;;;;;;;7.72;4.15;;;17.00;96.70;;;;;;5081138;28;20195;-77
2023/02/23 13:14:42;;;;;;;4.97;4.00;;;17.00;96.70;;;;;;5017812;28;20068;-76
2023/02/23 13:17:26;;;;;;;4.93;4.22;;;17.00;96.70;;;;;;5101966;28;20063;-77
2023/02/23 13:20:00;;;;;;;7.40;4.63;;;17.00;96.70;;;;;;5080480;28;20071;-77
2023/02/23 13:22:36;;;;;;;5.85;4.18;;;16.90;96.70;;;;;;5095413;28;20064;-77
2023/02/23 13:25:16;;;;;;;4.95;4.22;;;16.90;96.70;;;;;;5089555;28;20657;-76
2023/02/23 13:27:50;;;;;;;7.35;4.15;;;16.80;96.70;;;;;;5099941;28;20070;-76
2023/02/23 13:30:19;;;;;;;9.13;5.05;;;16.70;96.70;;;;;;5090408;28;20404;-76
2023/02/23 13:32:48;;;;;;;6.50;4.30;;;16.70;96.70;;;;;;5092007;28;20036;-77
2023/02/23 13:35:19;;;;;;;5.38;3.80;;;16.70;96.70;;;;;;5089064;28;20047;-77
2023/02/23 13:37:50;;;;;;;6.35;4.18;;;16.70;96.70;;;;;;5087731;28;20079;-74
2023/02/23 13:40:29;;;;;;;6.43;4.03;;;16.70;96.70;;;;;;5089833;28;20047;-75
2023/02/23 13:43:16;;;;;;;5.25;3.45;;;16.70;96.70;;;;;;5090705;28;20549;-74
2023/02/23 13:46:05;;;;;;;8.05;4.35;;;16.80;96.70;;;;;;5100172;28;20508;-76
2023/02/23 13:48:46;;;;;;;6.13;3.55;;;16.80;96.70;;;;;;5065634;28;20048;-77
2023/02/23 13:51:36;;;;;;;8.23;3.95;;;16.80;96.70;;;;;;5086770;28;20047;-76
2023/02/23 13:54:21;;;;;;;5.78;3.88;;;16.80;96.70;;;;;;5089573;28;20139;-78
2023/02/23 13:57:15;;;;;;;6.80;4.10;;;16.80;96.70;;;;;;5072301;28;20771;-77
2023/02/23 13:59:45;;;;;;;5.28;3.72;;;16.80;96.70;;;;;;5085537;28;20048;-77
2023/02/23 14:02:35;;;;;;;5.97;3.80;;;16.90;96.70;;;;;;5090831;28;20155;-75
2023/02/23 14:05:05;;;;;;;4.88;3.90;;;17.10;96.70;;;;;;5091615;28;20047;-76
2023/02/23 14:07:41;;;;;;;5.53;4.03;;;17.20;96.70;;;;;;5074876;28;20398;-76
2023/02/23 14:10:18;;;;;;;4.78;3.50;;;17.30;96.70;;;;;;5083565;28;20052;-76
2023/02/23 14:13:06;;;;;;;4.03;3.63;;;17.40;96.70;;;;;;5100092;28;20039;-76
2023/02/23 14:15:44;;;;;;;5.80;3.45;;;17.50;96.70;;;;;;5074474;28;20071;-76
2023/02/23 14:18:49;;;;;;;5.43;3.65;;;17.50;96.70;;;;;;5091188;28;20131;-76
2023/02/23 14:21:28;;;;;;;4.78;3.45;;;17.50;96.70;;;;;;5094174;28;20138;-76
2023/02/23 14:24:11;;;;;;;4.95;4.03;;;17.50;96.70;;;;;;5094060;28;20113;-76
2023/02/23 14:26:56;;;;;;;4.68;3.63;;;17.30;96.70;;;;;;5085884;28;20109;-77
2023/02/23 14:29:27;;;;;;;6.15;4.10;;;17.30;96.70;;;;;;5040387;28;20105;-75